Time;durP1;ratioP1;P1;durP2;ratioP2;P2;SDS_P1;SDS_P2;PMS_P1;PMS_P2;Temp;Humidity;BMP_temperature;BMP_pressure;BME280_temperature;BME280_humidity;BME280_pressure;Samples;Min_cycle;Max_cycle;Signal;HPM_P1;HPM_P2
2022/05/02 00:00:46;;;;;;;8.38;5.90;;;8.40;99.90;;;;;;5088144;28;20095;-61
2022/05/02 00:03:12;;;;;;;8.77;6.07;;;8.40;99.90;;;;;;5089172;28;20044;-62
2022/05/02 00:05:38;;;;;;;9.18;5.97;;;8.30;99.90;;;;;;5085977;28;20036;-62
2022/05/02 00:08:05;;;;;;;8.80;5.85;;;8.30;99.90;;;;;;5087080;28;20442;-62
2022/05/02 00:10:30;;;;;;;8.85;5.78;;;8.30;99.90;;;;;;5086107;28;20063;-61
2022/05/02 00:12:56;;;;;;;10.00;6.30;;;8.30;99.90;;;;;;5088199;28;20068;-61
2022/05/02 00:15:22;;;;;;;8.73;5.80;;;8.20;99.90;;;;;;5087878;28;20075;-62
2022/05/02 00:17:57;;;;;;;8.20;5.78;;;8.20;99.90;;;;;;5088764;28;20561;-61
2022/05/02 00:20:29;;;;;;;8.82;6.18;;;8.20;99.90;;;;;;5084555;28;20040;-61
2022/05/02 00:22:57;;;;;;;10.05;5.82;;;8.20;99.90;;;;;;5087586;28;20485;-61
2022/05/02 00:25:23;;;;;;;8.73;6.07;;;8.10;99.90;;;;;;5087803;28;20396;-61
2022/05/02 00:27:49;;;;;;;9.80;6.10;;;8.10;99.90;;;;;;5086922;28;20119;-64
2022/05/02 00:30:18;;;;;;;8.93;5.90;;;8.10;99.90;;;;;;5068662;28;20229;-61
2022/05/02 00:32:44;;;;;;;9.85;5.95;;;8.10;99.90;;;;;;5088554;28;20045;-61
2022/05/02 00:35:10;;;;;;;7.80;5.95;;;8.10;99.90;;;;;;5085865;28;20150;-62
2022/05/02 00:37:38;;;;;;;8.27;5.53;;;8.10;99.90;;;;;;5087080;28;20067;-61
2022/05/02 00:40:05;;;;;;;7.93;5.60;;;8.10;99.90;;;;;;5086259;28;20048;-62
2022/05/02 00:42:31;;;;;;;8.70;5.78;;;8.20;99.90;;;;;;5086879;28;20044;-61
2022/05/02 00:44:57;;;;;;;9.13;5.90;;;8.20;99.90;;;;;;5086561;28;20425;-61
2022/05/02 00:47:22;;;;;;;8.77;6.03;;;8.20;99.90;;;;;;5085653;28;20122;-61
2022/05/02 00:49:48;;;;;;;8.60;6.20;;;8.20;99.90;;;;;;5084843;28;20052;-62
2022/05/02 00:52:15;;;;;;;9.10;6.22;;;8.20;99.90;;;;;;5084035;28;20101;-61
2022/05/02 00:54:42;;;;;;;10.65;5.80;;;8.10;99.90;;;;;;5087187;28;20066;-62
2022/05/02 00:57:09;;;;;;;9.38;5.93;;;8.20;99.90;;;;;;5085409;28;20056;-62
2022/05/02 00:59:37;;;;;;;8.35;5.60;;;8.10;99.90;;;;;;5087998;28;20048;-62
2022/05/02 01:02:07;;;;;;;8.27;6.10;;;8.10;99.90;;;;;;5085295;28;20122;-63
2022/05/02 01:04:34;;;;;;;8.77;6.00;;;8.10;99.90;;;;;;5087537;28;20032;-61
2022/05/02 01:07:09;;;;;;;8.52;6.28;;;8.00;99.90;;;;;;5084738;28;20044;-62
2022/05/02 01:09:46;;;;;;;9.38;6.07;;;8.00;99.90;;;;;;5068159;28;20083;-61
2022/05/02 01:12:19;;;;;;;10.23;6.15;;;8.00;99.90;;;;;;5085881;28;20056;-62
2022/05/02 01:14:51;;;;;;;8.63;5.88;;;8.00;99.90;;;;;;5087613;28;20109;-62
2022/05/02 01:17:17;;;;;;;8.48;5.85;;;8.00;99.90;;;;;;5084829;28;20384;-62
2022/05/02 01:19:44;;;;;;;9.32;6.32;;;7.90;99.90;;;;;;5086249;28;20047;-62
2022/05/02 01:22:10;;;;;;;8.23;5.90;;;7.90;99.90;;;;;;5084875;28;20360;-61
2022/05/02 01:24:42;;;;;;;9.65;6.32;;;7.90;99.90;;;;;;5087508;28;20044;-62
2022/05/02 01:27:09;;;;;;;9.50;6.00;;;7.80;99.90;;;;;;5085057;28;20368;-61
2022/05/02 01:29:37;;;;;;;9.63;5.43;;;7.80;99.90;;;;;;5086777;28;20152;-62
2022/05/02 01:32:07;;;;;;;8.77;5.82;;;7.70;99.90;;;;;;5082536;28;20048;-63
2022/05/02 01:34:40;;;;;;;8.57;5.88;;;7.60;99.90;;;;;;5088061;28;20054;-61
2022/05/02 01:37:06;;;;;;;8.40;5.93;;;7.60;99.90;;;;;;5082752;28;20122;-61
2022/05/02 01:39:32;;;;;;;8.90;6.13;;;7.50;99.90;;;;;;5087058;28;20472;-61
2022/05/02 01:42:01;;;;;;;8.70;5.95;;;7.50;99.90;;;;;;5081932;28;21398;-61
2022/05/02 01:44:27;;;;;;;9.43;6.00;;;7.40;99.90;;;;;;5086683;28;20044;-61
2022/05/02 01:46:53;;;;;;;8.50;6.60;;;7.40;99.90;;;;;;5083560;28;20040;-61
2022/05/02 01:49:20;;;;;;;9.85;6.55;;;7.30;99.90;;;;;;5083441;28;20039;-61
2022/05/02 01:51:45;;;;;;;9.20;6.45;;;7.30;99.90;;;;;;5084766;28;20078;-60
2022/05/02 01:54:11;;;;;;;11.07;6.78;;;7.30;99.90;;;;;;5086833;28;20472;-61
2022/05/02 01:56:37;;;;;;;9.30;6.10;;;7.30;99.90;;;;;;5084408;28;20044;-61
2022/05/02 01:59:04;;;;;;;10.10;6.20;;;7.20;99.90;;;;;;5087282;28;20098;-61
2022/05/02 02:01:29;;;;;;;9.50;6.13;;;7.20;99.90;;;;;;5086627;28;20117;-61
2022/05/02 02:03:55;;;;;;;9.98;6.90;;;7.10;99.90;;;;;;5086981;28;20442;-61
2022/05/02 02:06:21;;;;;;;8.85;6.35;;;7.10;99.90;;;;;;5082657;28;20055;-60
2022/05/02 02:08:48;;;;;;;11.05;6.95;;;7.00;99.90;;;;;;5078418;28;20123;-61
2022/05/02 02:11:14;;;;;;;9.80;6.47;;;7.00;99.90;;;;;;5077362;28;20212;-62
2022/05/02 02:13:40;;;;;;;8.85;5.97;;;6.90;99.90;;;;;;5085879;28;20044;-61
2022/05/02 02:16:09;;;;;;;8.88;6.80;;;6.90;99.90;;;;;;5085363;28;20318;-61
2022/05/02 02:18:37;;;;;;;9.70;6.63;;;6.90;99.90;;;;;;5085457;28;20131;-61
2022/05/02 02:21:03;;;;;;;8.50;6.40;;;6.80;99.90;;;;;;5083968;28;20406;-63
2022/05/02 02:23:28;;;;;;;8.98;6.00;;;6.80;99.90;;;;;;5086946;28;20036;-61
2022/05/02 02:25:54;;;;;;;9.45;6.00;;;6.70;99.90;;;;;;5083790;28;20045;-62
2022/05/02 02:28:20;;;;;;;10.75;6.32;;;6.80;99.90;;;;;;5083246;28;20105;-61
2022/05/02 02:30:46;;;;;;;9.30;6.53;;;6.70;99.90;;;;;;5083859;28;20087;-61
2022/05/02 02:33:12;;;;;;;9.80;6.75;;;6.70;99.90;;;;;;5084462;28;20075;-61
2022/05/02 02:35:38;;;;;;;10.25;6.95;;;6.60;99.90;;;;;;5083271;28;20036;-61
2022/05/02 02:38:04;;;;;;;9.63;6.55;;;6.60;99.90;;;;;;5084021;28;20117;-61
2022/05/02 02:40:32;;;;;;;11.00;6.88;;;6.60;99.90;;;;;;5082984;28;20739;-62
2022/05/02 02:42:58;;;;;;;9.75;6.65;;;6.60;99.90;;;;;;5087570;28;20098;-61
2022/05/02 02:45:23;;;;;;;9.63;6.40;;;6.50;99.90;;;;;;5084710;28;20691;-62
2022/05/02 02:47:49;;;;;;;9.00;6.53;;;6.50;99.90;;;;;;5083609;28;20040;-60
2022/05/02 02:50:15;;;;;;;8.07;5.95;;;6.50;99.90;;;;;;5083550;28;20074;-62
2022/05/02 02:52:41;;;;;;;8.60;5.93;;;6.40;99.90;;;;;;5084890;28;20135;-60
2022/05/02 02:55:07;;;;;;;8.85;6.45;;;6.40;99.90;;;;;;5085338;28;20119;-62
2022/05/02 02:57:34;;;;;;;11.13;6.32;;;6.40;99.90;;;;;;5089311;28;20051;-60
2022/05/02 02:59:59;;;;;;;9.18;6.70;;;6.30;99.90;;;;;;5089534;28;20067;-63
2022/05/02 03:02:25;;;;;;;9.00;6.22;;;6.30;99.90;;;;;;5085599;28;20448;-60
2022/05/02 03:07:36;;;;;;;8.38;5.93;;;6.30;99.90;;;;;;5082014;28;20169;-61
2022/05/02 03:10:02;;;;;;;9.60;6.32;;;6.30;99.90;;;;;;5086262;28;20058;-61
2022/05/02 03:12:28;;;;;;;9.77;6.03;;;6.20;99.90;;;;;;5086370;28;20372;-60
2022/05/02 03:14:54;;;;;;;8.30;5.80;;;6.20;99.90;;;;;;5090340;28;20051;-61
2022/05/02 03:17:19;;;;;;;8.90;5.28;;;6.20;99.90;;;;;;5086485;28;20460;-60
2022/05/02 03:19:45;;;;;;;8.07;5.63;;;6.20;99.90;;;;;;5088254;28;20036;-60
2022/05/02 03:22:10;;;;;;;8.55;6.15;;;6.10;99.90;;;;;;5087312;28;20488;-61
2022/05/02 03:24:36;;;;;;;11.10;5.88;;;6.10;99.90;;;;;;5088477;28;20131;-60
2022/05/02 03:27:01;;;;;;;9.07;5.90;;;6.10;99.90;;;;;;5087856;28;20495;-62
2022/05/02 03:29:27;;;;;;;8.20;5.82;;;6.00;99.90;;;;;;5087429;28;20047;-61
2022/05/02 03:31:53;;;;;;;9.02;6.25;;;6.00;99.90;;;;;;5086939;28;20387;-61
2022/05/02 03:34:18;;;;;;;9.48;6.15;;;6.00;99.90;;;;;;5087688;28;20047;-60
2022/05/02 03:36:44;;;;;;;9.32;5.95;;;6.00;99.90;;;;;;5085170;28;20040;-61
2022/05/02 03:39:09;;;;;;;10.93;6.68;;;5.90;99.90;;;;;;5086445;28;20051;-63
2022/05/02 03:41:35;;;;;;;9.60;6.70;;;5.90;99.90;;;;;;5088172;28;20040;-60
2022/05/02 03:44:00;;;;;;;8.48;6.40;;;5.80;99.90;;;;;;5088634;28;20088;-62
2022/05/02 03:46:26;;;;;;;8.57;6.63;;;5.80;99.90;;;;;;5087934;28;20055;-60
2022/05/02 03:48:52;;;;;;;8.70;6.25;;;5.80;99.90;;;;;;5086305;28;20387;-62
2022/05/02 03:51:18;;;;;;;8.73;6.13;;;5.80;99.90;;;;;;5084483;28;20536;-61
2022/05/02 03:53:44;;;;;;;8.70;6.45;;;5.80;99.90;;;;;;5088175;28;20040;-61
2022/05/02 03:56:09;;;;;;;10.02;6.45;;;5.80;99.90;;;;;;5086256;28;20393;-61
2022/05/02 03:58:35;;;;;;;8.13;5.57;;;5.80;99.90;;;;;;5085699;28;20468;-61
2022/05/02 04:01:01;;;;;;;9.05;5.95;;;5.80;99.90;;;;;;5086958;28;20067;-61
2022/05/02 04:03:26;;;;;;;8.07;6.05;;;5.80;99.90;;;;;;5088761;28;20036;-62
2022/05/02 04:05:52;;;;;;;8.63;6.00;;;5.70;99.90;;;;;;5085243;28;20490;-61
2022/05/02 04:08:18;;;;;;;8.18;6.13;;;5.70;99.90;;;;;;5088189;28;20379;-61
2022/05/02 04:10:43;;;;;;;7.70;5.30;;;5.70;99.90;;;;;;5086873;28;20190;-61
2022/05/02 04:13:09;;;;;;;7.90;5.40;;;5.70;99.90;;;;;;5088096;28;20093;-61
2022/05/02 04:15:35;;;;;;;8.25;5.38;;;5.70;99.90;;;;;;5086858;28;20040;-61
2022/05/02 04:18:01;;;;;;;8.35;5.53;;;5.70;99.90;;;;;;5087419;28;20044;-62
2022/05/02 04:20:26;;;;;;;6.97;4.97;;;5.70;99.90;;;;;;5086088;28;20078;-63
2022/05/02 04:22:52;;;;;;;8.02;4.90;;;5.70;99.90;;;;;;5085322;28;20043;-63
2022/05/02 04:25:18;;;;;;;7.22;5.00;;;5.70;99.90;;;;;;5088182;28;20135;-62
2022/05/02 04:27:43;;;;;;;9.02;5.57;;;5.70;99.90;;;;;;5086707;28;20111;-62
2022/05/02 04:30:11;;;;;;;7.63;5.32;;;5.70;99.90;;;;;;5085082;28;20036;-63
2022/05/02 04:32:37;;;;;;;7.82;5.55;;;5.70;99.90;;;;;;5080150;28;20048;-62
2022/05/02 04:35:03;;;;;;;7.47;5.38;;;5.70;99.90;;;;;;5080480;28;20471;-63
2022/05/02 04:37:29;;;;;;;7.28;4.85;;;5.70;99.90;;;;;;5079642;28;20055;-62
2022/05/02 04:39:54;;;;;;;7.53;5.30;;;5.70;99.90;;;;;;5080928;28;20052;-61
2022/05/02 04:42:20;;;;;;;8.23;5.38;;;5.70;99.90;;;;;;5085254;28;20576;-61
2022/05/02 04:44:46;;;;;;;10.48;6.80;;;5.70;99.90;;;;;;5087030;28;20058;-62
2022/05/02 04:47:12;;;;;;;9.98;7.03;;;5.80;99.90;;;;;;5085667;28;20195;-62
2022/05/02 04:49:37;;;;;;;10.82;7.40;;;5.80;99.90;;;;;;5075543;28;20040;-61
2022/05/02 04:52:03;;;;;;;10.23;6.53;;;5.90;99.90;;;;;;5075804;28;20078;-63
2022/05/02 04:54:29;;;;;;;8.77;6.22;;;5.90;99.90;;;;;;5080045;28;20062;-62
2022/05/02 04:56:54;;;;;;;8.30;5.80;;;6.00;99.90;;;;;;5086141;28;20048;-62
2022/05/02 04:59:20;;;;;;;8.70;5.95;;;6.10;99.90;;;;;;5084699;28;20147;-62
2022/05/02 05:01:45;;;;;;;9.02;6.18;;;6.10;99.90;;;;;;5075024;28;20127;-61
2022/05/02 05:04:11;;;;;;;11.18;8.35;;;6.20;99.90;;;;;;5075665;28;20040;-62
2022/05/02 05:06:36;;;;;;;12.48;8.95;;;6.30;99.90;;;;;;5081442;28;20395;-62
2022/05/02 05:09:03;;;;;;;14.52;10.10;;;6.30;99.90;;;;;;5076035;28;20489;-64
2022/05/02 05:11:54;;;;;;;14.77;9.80;;;6.40;99.90;;;;;;5089871;28;20050;-61
2022/05/02 05:18:05;;;;;;;14.13;10.82;;;6.70;99.90;;;;;;5081793;28;20127;-61
2022/05/02 05:21:02;;;;;;;13.23;9.40;;;6.60;99.90;;;;;;5071630;28;20459;-62
2022/05/02 05:23:51;;;;;;;13.80;10.13;;;6.80;99.90;;;;;;5076455;28;20689;-62
2022/05/02 05:26:31;;;;;;;13.73;8.55;;;6.90;99.90;;;;;;5081129;28;20143;-61
2022/05/02 05:29:22;;;;;;;14.27;8.98;;;7.10;99.90;;;;;;5071994;28;20183;-63
2022/05/02 05:31:57;;;;;;;15.18;9.80;;;7.20;99.90;;;;;;5081409;28;20449;-61
2022/05/02 05:34:44;;;;;;;13.80;10.10;;;7.30;99.90;;;;;;5084558;28;20139;-61
2022/05/02 05:37:36;;;;;;;12.85;9.27;;;7.40;99.90;;;;;;5085279;28;20070;-62
2022/05/02 05:40:30;;;;;;;14.40;9.65;;;7.60;99.90;;;;;;5085085;28;20134;-62
2022/05/02 05:43:06;;;;;;;13.52;9.52;;;7.70;99.90;;;;;;5077222;28;20094;-62
2022/05/02 05:45:48;;;;;;;13.48;9.95;;;7.80;99.90;;;;;;5072412;28;20460;-62
2022/05/02 05:48:24;;;;;;;13.60;9.48;;;7.70;99.90;;;;;;5086244;28;20047;-61
2022/05/02 05:51:22;;;;;;;15.27;10.20;;;7.90;99.90;;;;;;5076267;28;20376;-62
2022/05/02 05:54:14;;;;;;;12.15;9.13;;;7.90;99.90;;;;;;5089693;28;20050;-61
2022/05/02 05:56:59;;;;;;;14.10;9.88;;;8.00;99.90;;;;;;5088810;28;20139;-62
2022/05/02 05:59:40;;;;;;;12.90;9.57;;;8.20;99.90;;;;;;5068204;28;20044;-61
2022/05/02 06:02:27;;;;;;;13.50;10.15;;;8.10;99.90;;;;;;5085106;28;20055;-61
2022/05/02 06:04:57;;;;;;;12.98;9.68;;;8.20;99.90;;;;;;5071067;28;20106;-62
2022/05/02 06:07:27;;;;;;;14.40;10.40;;;8.20;99.90;;;;;;5085475;28;20094;-61
2022/05/02 06:09:55;;;;;;;15.55;11.23;;;8.00;99.90;;;;;;5087907;28;20086;-62
2022/05/02 06:12:23;;;;;;;14.60;11.02;;;8.00;99.90;;;;;;5085452;28;20525;-61
2022/05/02 06:20:22;;;;;;;12.60;10.13;;;8.50;99.90;;;;;;5084682;28;20048;-62
2022/05/02 06:22:48;;;;;;;14.63;10.68;;;8.60;99.90;;;;;;5086192;28;20059;-61
2022/05/02 06:25:15;;;;;;;15.55;10.68;;;8.80;99.90;;;;;;5087465;28;20052;-62
2022/05/02 06:27:42;;;;;;;17.15;11.32;;;9.00;99.90;;;;;;5086184;28;20078;-61
2022/05/02 06:30:09;;;;;;;14.60;10.80;;;9.20;99.90;;;;;;5087103;28;20035;-62
2022/05/02 06:32:42;;;;;;;14.43;10.95;;;9.20;99.90;;;;;;5079750;28;20467;-61
2022/05/02 06:35:08;;;;;;;14.85;11.55;;;9.30;99.90;;;;;;5087520;28;20051;-62
2022/05/02 06:37:50;;;;;;;14.45;10.68;;;9.30;99.90;;;;;;5090661;28;20113;-62
2022/05/02 06:40:36;;;;;;;14.07;10.95;;;9.50;99.90;;;;;;5090447;28;20052;-61
2022/05/02 06:43:29;;;;;;;14.30;9.93;;;9.60;99.90;;;;;;5091073;28;20124;-61
2022/05/02 06:46:16;;;;;;;12.43;9.68;;;9.70;99.90;;;;;;5088258;28;20047;-61
2022/05/02 06:48:48;;;;;;;16.58;11.00;;;9.80;99.90;;;;;;5083842;28;20048;-61
2022/05/02 06:51:20;;;;;;;16.25;11.00;;;9.90;99.90;;;;;;5088432;28;20050;-61
2022/05/02 06:54:18;;;;;;;12.55;10.25;;;10.00;99.90;;;;;;5089212;28;20079;-60
2022/05/02 06:57:02;;;;;;;14.43;10.65;;;10.20;99.90;;;;;;5088790;28;20048;-60
2022/05/02 06:59:49;;;;;;;14.43;10.68;;;10.30;99.90;;;;;;5088967;28;20043;-60
2022/05/02 07:02:41;;;;;;;14.77;10.82;;;10.20;99.90;;;;;;5087480;28;20344;-60
2022/05/02 07:05:33;;;;;;;14.40;10.45;;;10.40;99.90;;;;;;5078994;28;20040;-61
2022/05/02 07:08:05;;;;;;;13.90;10.30;;;10.50;99.90;;;;;;5089865;28;20046;-61
2022/05/02 07:10:35;;;;;;;13.45;10.45;;;10.50;99.90;;;;;;5088512;28;20048;-61
2022/05/02 07:13:31;;;;;;;13.25;10.38;;;10.70;99.90;;;;;;5091202;28;20474;-61
2022/05/02 07:16:16;;;;;;;13.90;9.93;;;10.90;99.90;;;;;;5087623;28;20496;-61
2022/05/02 07:19:06;;;;;;;12.98;10.30;;;10.90;99.90;;;;;;5091818;28;20161;-61
2022/05/02 07:21:46;;;;;;;15.20;10.45;;;11.10;99.90;;;;;;5086410;28;20521;-62
2022/05/02 07:24:55;;;;;;;15.80;11.25;;;11.20;99.90;;;;;;5087898;28;20501;-61
2022/05/02 07:27:39;;;;;;;13.38;11.05;;;11.40;99.90;;;;;;5026905;28;20045;-61
2022/05/02 07:30:06;;;;;;;14.63;11.15;;;11.50;99.90;;;;;;5085029;28;20052;-62
2022/05/02 07:32:32;;;;;;;14.95;10.52;;;11.60;99.90;;;;;;5087829;28;20054;-61
2022/05/02 07:34:59;;;;;;;15.07;11.30;;;11.70;99.90;;;;;;5089499;28;20118;-63
2022/05/02 07:37:25;;;;;;;13.65;9.82;;;11.80;99.90;;;;;;5086717;28;20072;-60
2022/05/02 07:39:52;;;;;;;14.73;11.20;;;12.00;99.90;;;;;;5090331;28;20082;-61
2022/05/02 07:42:19;;;;;;;17.02;11.98;;;12.00;99.90;;;;;;5087534;28;20052;-60
2022/05/02 07:44:47;;;;;;;13.15;10.38;;;12.00;99.90;;;;;;5089296;28;20040;-60
2022/05/02 07:47:15;;;;;;;13.68;11.35;;;12.20;99.90;;;;;;5088930;28;20141;-60
2022/05/02 07:49:46;;;;;;;12.95;10.00;;;12.30;99.90;;;;;;5087171;28;20190;-60
2022/05/02 07:52:19;;;;;;;12.57;10.45;;;12.40;99.90;;;;;;5084877;28;20054;-60
2022/05/02 07:54:47;;;;;;;12.60;9.40;;;12.50;99.90;;;;;;5089251;28;20349;-60
2022/05/02 07:57:15;;;;;;;11.57;8.95;;;12.70;99.90;;;;;;5087375;28;20064;-60
2022/05/02 07:59:42;;;;;;;12.02;9.30;;;12.80;99.90;;;;;;5089670;28;20044;-60
2022/05/02 08:02:09;;;;;;;11.48;8.80;;;12.90;99.90;;;;;;5087521;28;20040;-60
2022/05/02 08:04:38;;;;;;;14.40;9.68;;;13.00;99.90;;;;;;5089867;28;20092;-61
2022/05/02 08:07:36;;;;;;;13.43;10.00;;;13.10;99.90;;;;;;5086592;28;20356;-61
2022/05/02 08:10:30;;;;;;;13.43;10.23;;;13.20;99.90;;;;;;5089199;28;20051;-61
2022/05/02 08:13:46;;;;;;;13.13;9.38;;;13.30;99.90;;;;;;5088646;28;20123;-61
2022/05/02 08:16:24;;;;;;;14.73;9.05;;;13.50;99.90;;;;;;5041035;28;20048;-61
2022/05/02 08:19:28;;;;;;;11.30;9.00;;;13.60;99.90;;;;;;5088450;28;20062;-61
2022/05/02 08:27:15;;;;;;;13.25;9.57;;;13.70;99.90;;;;;;5071241;28;20048;-60
2022/05/02 08:27:59;;;;;;;11.90;9.45;;;13.90;99.90;;;;;;5088431;28;20514;-61
2022/05/02 08:30:25;;;;;;;11.25;9.32;;;14.00;99.90;;;;;;5085815;28;20135;-62
2022/05/02 08:32:58;;;;;;;14.13;9.38;;;13.90;99.90;;;;;;5088043;28;20066;-61
2022/05/02 08:35:50;;;;;;;12.23;8.90;;;14.10;99.90;;;;;;5083594;28;20028;-60
2022/05/02 08:38:40;;;;;;;10.52;8.63;;;14.20;99.90;;;;;;5087791;28;20083;-61
2022/05/02 08:41:08;;;;;;;12.05;8.52;;;14.40;99.00;;;;;;5088976;28;20070;-61
2022/05/02 08:43:56;;;;;;;11.75;7.82;;;14.50;98.70;;;;;;5088712;28;20130;-61
2022/05/02 08:46:53;;;;;;;10.95;7.68;;;14.50;97.10;;;;;;5086252;28;20270;-61
2022/05/02 08:49:37;;;;;;;13.05;7.97;;;14.60;96.10;;;;;;5086297;28;20145;-61
2022/05/02 08:52:27;;;;;;;9.95;7.50;;;14.60;95.50;;;;;;5086446;28;20067;-63
2022/05/02 08:55:12;;;;;;;9.95;7.50;;;14.70;94.90;;;;;;5086366;28;20143;-61
2022/05/02 08:58:11;;;;;;;10.88;7.47;;;14.80;94.80;;;;;;5088329;28;20129;-61
2022/05/02 09:00:42;;;;;;;11.05;6.90;;;14.90;93.00;;;;;;5085516;28;20125;-61
2022/05/02 09:03:17;;;;;;;12.05;6.90;;;14.80;92.00;;;;;;5088684;28;20054;-60
2022/05/02 09:06:04;;;;;;;9.05;6.78;;;14.90;91.80;;;;;;5086674;28;20052;-61
2022/05/02 09:08:45;;;;;;;13.32;7.65;;;15.00;88.60;;;;;;5088640;28;20044;-61
2022/05/02 09:11:31;;;;;;;10.27;7.03;;;15.00;90.30;;;;;;5087885;28;20043;-61
2022/05/02 09:14:28;;;;;;;10.98;7.35;;;15.00;90.20;;;;;;5089392;28;20085;-61
2022/05/02 09:17:21;;;;;;;9.60;6.72;;;15.20;89.40;;;;;;5084881;28;20437;-61
2022/05/02 09:20:24;;;;;;;9.43;6.90;;;15.20;84.30;;;;;;5087035;28;20048;-62
2022/05/02 09:23:20;;;;;;;10.95;7.72;;;15.30;85.30;;;;;;5073785;28;20540;-61
2022/05/02 09:26:00;;;;;;;9.38;6.82;;;15.30;84.20;;;;;;5084067;28;20048;-61
2022/05/02 09:28:36;;;;;;;9.50;7.03;;;15.30;82.60;;;;;;5086486;28;20696;-61
2022/05/02 09:31:23;;;;;;;10.88;6.78;;;15.40;85.20;;;;;;5087777;28;20052;-63
2022/05/02 09:34:30;;;;;;;9.43;5.95;;;15.50;80.10;;;;;;5087414;28;20067;-61
2022/05/02 09:37:14;;;;;;;9.40;6.30;;;15.60;79.70;;;;;;5085247;28;20036;-61
2022/05/02 09:40:04;;;;;;;9.82;6.20;;;15.50;77.50;;;;;;5088152;28;20051;-62
2022/05/02 09:43:14;;;;;;;8.40;5.65;;;15.60;76.90;;;;;;5066662;28;20055;-60
2022/05/02 09:52:02;;;;;;;9.52;6.15;;;15.30;74.10;;;;;;5085572;28;20459;-61
2022/05/02 09:58:17;;;;;;;9.45;6.90;;;15.00;77.20;;;;;;5061243;28;20345;-61
2022/05/02 10:01:07;;;;;;;8.63;6.43;;;14.80;78.20;;;;;;5085828;28;20052;-61
2022/05/02 10:03:49;;;;;;;10.02;6.78;;;14.60;78.90;;;;;;5086059;28;20052;-60
2022/05/02 10:06:24;;;;;;;11.05;7.25;;;14.80;84.00;;;;;;5089191;28;20036;-61
2022/05/02 10:09:16;;;;;;;10.23;6.18;;;15.10;85.90;;;;;;5090525;28;20040;-63
2022/05/02 10:12:03;;;;;;;9.02;6.75;;;15.40;84.40;;;;;;5080994;28;20582;-62
2022/05/02 10:14:54;;;;;;;10.10;6.88;;;15.50;79.10;;;;;;5091566;28;20048;-61
2022/05/02 10:17:37;;;;;;;10.48;6.95;;;15.30;74.50;;;;;;5088950;28;20040;-63
2022/05/02 10:20:04;;;;;;;9.52;6.47;;;15.20;75.10;;;;;;5090602;28;20048;-62
2022/05/02 10:23:15;;;;;;;9.02;6.75;;;15.30;76.70;;;;;;5090217;28;20054;-62
2022/05/02 10:26:14;;;;;;;10.38;7.43;;;15.50;80.30;;;;;;5089653;28;20062;-61
2022/05/02 10:28:59;;;;;;;10.70;7.40;;;15.60;74.30;;;;;;5091262;28;20130;-61
2022/05/02 10:31:25;;;;;;;;;;;15.70;74.20;;;;;;5086669;28;20079;-62
2022/05/02 10:33:53;;;;;;;11.35;6.72;;;15.70;70.70;;;;;;5091861;28;19963;-61
2022/05/02 10:36:28;;;;;;;8.77;6.68;;;15.90;73.70;;;;;;5088187;28;20050;-61
2022/05/02 10:39:01;;;;;;;8.35;6.18;;;16.00;70.60;;;;;;5091760;28;20059;-61
2022/05/02 10:41:30;;;;;;;9.65;6.50;;;16.20;70.80;;;;;;5092054;28;20111;-61
2022/05/02 10:44:01;;;;;;;8.88;6.28;;;16.30;69.60;;;;;;5091850;28;20048;-61
2022/05/02 10:46:29;;;;;;;8.93;5.65;;;16.50;68.60;;;;;;5088870;28;20110;-61
2022/05/02 10:49:01;;;;;;;8.27;5.88;;;16.60;67.10;;;;;;5091531;28;20153;-62
2022/05/02 10:51:32;;;;;;;9.68;6.32;;;16.60;65.30;;;;;;5089493;28;20636;-61
2022/05/02 10:54:27;;;;;;;9.32;5.80;;;16.70;64.00;;;;;;5091094;28;20090;-61
2022/05/02 10:56:59;;;;;;;7.45;5.13;;;16.70;64.30;;;;;;5090074;28;20199;-61
2022/05/02 10:59:31;;;;;;;7.95;5.78;;;16.90;63.80;;;;;;5091692;28;20614;-61
2022/05/02 11:02:06;;;;;;;8.27;5.65;;;17.00;63.60;;;;;;5082137;28;20139;-61
2022/05/02 11:05:02;;;;;;;8.43;5.45;;;17.20;64.40;;;;;;5079885;28;20044;-61
2022/05/02 11:07:35;;;;;;;8.40;5.50;;;17.20;61.20;;;;;;5089463;28;20051;-62
2022/05/02 11:10:09;;;;;;;8.98;6.05;;;17.30;61.60;;;;;;5087881;28;20387;-62
2022/05/02 11:13:09;;;;;;;22.27;7.53;;;17.10;59.80;;;;;;5079136;28;20106;-62
2022/05/02 11:15:43;;;;;;;10.15;6.15;;;17.10;61.80;;;;;;5089130;28;20036;-61
2022/05/02 11:21:16;;;;;;;9.95;5.60;;;17.10;61.10;;;;;;5078089;28;20064;-61
2022/05/02 11:24:02;;;;;;;8.23;5.78;;;17.20;60.50;;;;;;5090135;28;20175;-62
2022/05/02 11:26:45;;;;;;;9.90;6.00;;;17.10;58.90;;;;;;5087280;28;20123;-62
2022/05/02 11:29:32;;;;;;;7.63;5.75;;;17.00;60.00;;;;;;5080957;28;20139;-61
2022/05/02 11:32:08;;;;;;;9.23;5.20;;;17.20;60.20;;;;;;5089484;28;20189;-61
2022/05/02 11:34:50;;;;;;;10.35;5.03;;;17.20;58.60;;;;;;5089299;28;20352;-62
2022/05/02 11:37:31;;;;;;;6.90;4.53;;;17.20;58.10;;;;;;5087903;28;20044;-61
2022/05/02 11:40:07;;;;;;;6.95;4.75;;;17.20;57.50;;;;;;5087252;28;20052;-63
2022/05/02 11:42:33;;;;;;;7.68;5.20;;;17.20;57.70;;;;;;5081905;28;20094;-61
2022/05/02 11:45:02;;;;;;;7.53;4.60;;;17.20;58.00;;;;;;5088747;28;20044;-61
2022/05/02 11:48:05;;;;;;;8.07;5.07;;;17.40;58.10;;;;;;5089883;28;20123;-61
2022/05/02 11:50:43;;;;;;;7.72;5.38;;;17.50;57.40;;;;;;5085388;28;20133;-62
2022/05/02 11:53:13;;;;;;;8.40;5.05;;;17.60;58.70;;;;;;5089517;28;20391;-61
2022/05/02 11:55:40;;;;;;;7.07;4.65;;;17.70;60.00;;;;;;5089444;28;20036;-61
2022/05/02 11:58:24;;;;;;;8.35;4.80;;;17.80;59.10;;;;;;5088162;28;20138;-62
2022/05/02 12:00:53;;;;;;;6.57;4.70;;;17.90;56.50;;;;;;5069442;28;20178;-61
2022/05/02 12:03:24;;;;;;;6.63;4.53;;;17.80;56.90;;;;;;5068668;28;20119;-62
2022/05/02 12:05:57;;;;;;;7.28;3.67;;;17.90;56.10;;;;;;5068283;28;20055;-61
2022/05/02 12:08:34;;;;;;;7.03;4.20;;;17.80;54.70;;;;;;5069422;28;20360;-61
2022/05/02 12:11:20;;;;;;;9.20;5.00;;;17.80;55.00;;;;;;5068567;28;20041;-61
2022/05/02 12:13:47;;;;;;;9.25;3.90;;;18.00;54.60;;;;;;5077057;28;20466;-61
2022/05/02 12:16:17;;;;;;;7.90;4.72;;;18.00;55.90;;;;;;5089120;28;20048;-62
2022/05/02 12:18:46;;;;;;;8.70;5.30;;;18.00;55.90;;;;;;5088357;28;20548;-62
2022/05/02 12:21:36;;;;;;;8.00;5.03;;;18.00;55.40;;;;;;5086769;28;20048;-62
2022/05/02 12:24:03;;;;;;;9.18;5.30;;;18.00;55.80;;;;;;5075975;28;20067;-63
2022/05/02 12:26:32;;;;;;;8.00;4.95;;;18.20;55.90;;;;;;5088202;28;20459;-62
2022/05/02 12:29:04;;;;;;;6.40;4.75;;;18.20;56.10;;;;;;5088749;28;20040;-60
2022/05/02 12:31:34;;;;;;;6.85;4.90;;;18.30;55.70;;;;;;5088386;28;20052;-61
2022/05/02 12:34:12;;;;;;;7.22;5.07;;;18.40;55.90;;;;;;5088715;28;20044;-62
2022/05/02 12:36:43;;;;;;;8.45;5.20;;;18.40;54.50;;;;;;5086954;28;20586;-61
2022/05/02 12:39:15;;;;;;;8.25;4.82;;;18.60;56.50;;;;;;5087117;28;20040;-61
2022/05/02 12:42:14;;;;;;;6.65;5.35;;;18.60;56.30;;;;;;5088441;28;20051;-62
2022/05/02 12:45:04;;;;;;;7.65;5.50;;;18.60;53.60;;;;;;5083472;28;20479;-62
2022/05/02 12:47:54;;;;;;;7.35;5.22;;;18.40;53.80;;;;;;5087347;28;20055;-62
2022/05/02 12:50:25;;;;;;;9.20;4.90;;;18.60;54.80;;;;;;5086554;28;20055;-62
2022/05/02 12:52:56;;;;;;;8.43;5.57;;;18.70;54.80;;;;;;5086114;28;20135;-61
2022/05/02 12:55:33;;;;;;;8.18;5.22;;;18.70;53.90;;;;;;5087003;28;20087;-63
2022/05/02 13:00:48;;;;;;;7.82;5.00;;;18.60;54.50;;;;;;5087107;28;20044;-61
2022/05/02 13:03:17;;;;;;;8.13;5.20;;;18.70;55.00;;;;;;5086767;28;20048;-61
2022/05/02 13:05:46;;;;;;;8.77;5.85;;;18.60;53.70;;;;;;5085839;28;20558;-61
2022/05/02 13:08:14;;;;;;;7.47;4.53;;;18.90;53.10;;;;;;5087419;28;20044;-61
2022/05/02 13:10:42;;;;;;;7.60;5.03;;;19.20;54.10;;;;;;5086722;28;20036;-62
2022/05/02 13:13:17;;;;;;;8.88;5.07;;;19.40;55.10;;;;;;5088043;28;20046;-62
2022/05/02 13:15:43;;;;;;;;;;;19.70;54.90;;;;;;5086325;28;20456;-63
2022/05/02 13:18:18;;;;;;;7.30;4.95;;;19.70;53.90;;;;;;5088516;28;20272;-61
2022/05/02 13:21:05;;;;;;;6.38;4.90;;;19.30;53.20;;;;;;5084805;28;20032;-61
2022/05/02 13:23:38;;;;;;;8.18;5.28;;;19.20;53.30;;;;;;5087489;28;20089;-62
2022/05/02 13:26:33;;;;;;;7.60;5.10;;;18.90;53.10;;;;;;5080237;28;20379;-61
2022/05/02 13:29:29;;;;;;;7.38;4.93;;;18.90;52.80;;;;;;5087079;28;20421;-62
2022/05/02 13:32:02;;;;;;;7.00;4.40;;;18.90;53.80;;;;;;5087640;28;20119;-62
2022/05/02 13:34:31;;;;;;;9.02;5.40;;;19.10;55.00;;;;;;5087581;28;20119;-61
2022/05/02 13:37:15;;;;;;;8.60;5.97;;;19.30;53.30;;;;;;5084131;28;20121;-61
2022/05/02 13:39:57;;;;;;;7.40;5.20;;;19.50;52.90;;;;;;5087092;28;20040;-62
2022/05/02 13:42:36;;;;;;;7.65;5.28;;;19.70;52.50;;;;;;5078669;28;20052;-62
2022/05/02 13:45:28;;;;;;;8.93;5.00;;;19.70;52.10;;;;;;5087617;28;20182;-62
2022/05/02 13:48:15;;;;;;;7.07;5.03;;;19.70;51.90;;;;;;5085650;28;20036;-61
2022/05/02 13:50:59;;;;;;;7.25;4.60;;;19.90;53.40;;;;;;5084633;28;20097;-61
2022/05/02 13:53:35;;;;;;;7.33;4.47;;;19.90;53.70;;;;;;5088488;28;20044;-62
2022/05/02 13:56:10;;;;;;;7.40;5.05;;;20.00;52.80;;;;;;5083993;28;20334;-61